sensor_id;sensor_type;location;lat;lon;timestamp;P1;durP1;ratioP1;P2;durP2;ratioP2
35110;SDS011;21290;50.158;8.658;2023-08-17T00:01:17;9.73;;;4.70;;
35110;SDS011;21290;50.158;8.658;2023-08-17T00:03:45;11.73;;;4.95;;
35110;SDS011;21290;50.158;8.658;2023-08-17T00:06:12;8.48;;;4.50;;
35110;SDS011;21290;50.158;8.658;2023-08-17T00:08:38;11.73;;;5.25;;
35110;SDS011;21290;50.158;8.658;2023-08-17T00:11:05;11.18;;;4.97;;
35110;SDS011;21290;50.158;8.658;2023-08-17T00:13:32;9.15;;;4.97;;
35110;SDS011;21290;50.158;8.658;2023-08-17T00:15:58;12.02;;;5.15;;
35110;SDS011;21290;50.158;8.658;2023-08-17T00:18:26;11.23;;;5.35;;
35110;SDS011;21290;50.158;8.658;2023-08-17T00:20:52;8.43;;;5.03;;
35110;SDS011;21290;50.158;8.658;2023-08-17T00:23:19;7.10;;;4.97;;
35110;SDS011;21290;50.158;8.658;2023-08-17T00:25:47;16.27;;;5.63;;
35110;SDS011;21290;50.158;8.658;2023-08-17T00:28:14;10.52;;;5.32;;
35110;SDS011;21290;50.158;8.658;2023-08-17T00:30:40;15.25;;;6.13;;
35110;SDS011;21290;50.158;8.658;2023-08-17T00:33:07;14.18;;;7.03;;
35110;SDS011;21290;50.158;8.658;2023-08-17T00:35:34;10.15;;;6.55;;
35110;SDS011;21290;50.158;8.658;2023-08-17T00:38:00;17.35;;;6.80;;
35110;SDS011;21290;50.158;8.658;2023-08-17T00:40:27;16.77;;;6.80;;
35110;SDS011;21290;50.158;8.658;2023-08-17T00:42:53;13.68;;;6.40;;
35110;SDS011;21290;50.158;8.658;2023-08-17T00:45:21;15.70;;;6.93;;
35110;SDS011;21290;50.158;8.658;2023-08-17T00:47:49;19.02;;;7.00;;
35110;SDS011;21290;50.158;8.658;2023-08-17T00:50:16;14.40;;;7.15;;
35110;SDS011;21290;50.158;8.658;2023-08-17T00:52:43;16.05;;;7.32;;
35110;SDS011;21290;50.158;8.658;2023-08-17T00:55:09;16.52;;;7.50;;
35110;SDS011;21290;50.158;8.658;2023-08-17T00:57:37;16.02;;;7.20;;
35110;SDS011;21290;50.158;8.658;2023-08-17T01:00:05;17.95;;;7.68;;
35110;SDS011;21290;50.158;8.658;2023-08-17T01:02:33;21.23;;;7.93;;
35110;SDS011;21290;50.158;8.658;2023-08-17T01:05:01;16.83;;;7.93;;
35110;SDS011;21290;50.158;8.658;2023-08-17T01:07:28;20.15;;;8.77;;
35110;SDS011;21290;50.158;8.658;2023-08-17T01:09:55;17.98;;;8.13;;
35110;SDS011;21290;50.158;8.658;2023-08-17T01:20:50;22.95;;;9.07;;
35110;SDS011;21290;50.158;8.658;2023-08-17T01:23:19;17.33;;;8.10;;
35110;SDS011;21290;50.158;8.658;2023-08-17T01:25:46;20.05;;;8.95;;
35110;SDS011;21290;50.158;8.658;2023-08-17T01:28:12;22.80;;;8.90;;
35110;SDS011;21290;50.158;8.658;2023-08-17T01:30:49;22.98;;;9.77;;
35110;SDS011;21290;50.158;8.658;2023-08-17T01:38:42;22.23;;;9.95;;
35110;SDS011;21290;50.158;8.658;2023-08-17T01:41:11;30.63;;;11.10;;
35110;SDS011;21290;50.158;8.658;2023-08-17T01:43:41;25.55;;;11.10;;
35110;SDS011;21290;50.158;8.658;2023-08-17T01:46:13;22.88;;;10.35;;
35110;SDS011;21290;50.158;8.658;2023-08-17T01:48:41;25.25;;;11.05;;
35110;SDS011;21290;50.158;8.658;2023-08-17T01:51:10;25.85;;;11.15;;
35110;SDS011;21290;50.158;8.658;2023-08-17T01:53:37;25.10;;;11.25;;
35110;SDS011;21290;50.158;8.658;2023-08-17T01:56:04;26.80;;;11.43;;
35110;SDS011;21290;50.158;8.658;2023-08-17T01:58:31;27.52;;;11.45;;
35110;SDS011;21290;50.158;8.658;2023-08-17T02:00:57;23.73;;;10.18;;
35110;SDS011;21290;50.158;8.658;2023-08-17T02:03:24;28.40;;;11.48;;
35110;SDS011;21290;50.158;8.658;2023-08-17T02:05:51;25.98;;;11.77;;
35110;SDS011;21290;50.158;8.658;2023-08-17T02:08:17;29.95;;;12.13;;
35110;SDS011;21290;50.158;8.658;2023-08-17T02:10:44;32.72;;;11.93;;
35110;SDS011;21290;50.158;8.658;2023-08-17T02:13:10;29.55;;;10.82;;
35110;SDS011;21290;50.158;8.658;2023-08-17T02:15:43;30.90;;;12.88;;
35110;SDS011;21290;50.158;8.658;2023-08-17T02:18:10;34.47;;;13.80;;
35110;SDS011;21290;50.158;8.658;2023-08-17T02:20:37;35.63;;;12.65;;
35110;SDS011;21290;50.158;8.658;2023-08-17T02:23:04;35.83;;;13.77;;
35110;SDS011;21290;50.158;8.658;2023-08-17T02:25:30;39.00;;;14.65;;
35110;SDS011;21290;50.158;8.658;2023-08-17T02:28:02;37.40;;;14.73;;
35110;SDS011;21290;50.158;8.658;2023-08-17T02:30:29;36.95;;;15.02;;
35110;SDS011;21290;50.158;8.658;2023-08-17T02:32:56;38.78;;;15.00;;
35110;SDS011;21290;50.158;8.658;2023-08-17T02:35:23;36.53;;;14.77;;
35110;SDS011;21290;50.158;8.658;2023-08-17T02:37:50;45.90;;;15.43;;
35110;SDS011;21290;50.158;8.658;2023-08-17T02:40:17;44.20;;;14.77;;
35110;SDS011;21290;50.158;8.658;2023-08-17T02:42:44;41.70;;;14.77;;
35110;SDS011;21290;50.158;8.658;2023-08-17T02:45:10;37.45;;;14.13;;
35110;SDS011;21290;50.158;8.658;2023-08-17T02:47:37;42.72;;;15.55;;
35110;SDS011;21290;50.158;8.658;2023-08-17T02:50:04;42.78;;;14.90;;
35110;SDS011;21290;50.158;8.658;2023-08-17T02:52:31;47.47;;;15.80;;
35110;SDS011;21290;50.158;8.658;2023-08-17T02:54:57;47.65;;;17.00;;
35110;SDS011;21290;50.158;8.658;2023-08-17T02:57:24;48.95;;;16.38;;
35110;SDS011;21290;50.158;8.658;2023-08-17T02:59:51;42.28;;;15.60;;
35110;SDS011;21290;50.158;8.658;2023-08-17T03:02:17;47.20;;;16.83;;
35110;SDS011;21290;50.158;8.658;2023-08-17T03:04:44;49.97;;;16.52;;
35110;SDS011;21290;50.158;8.658;2023-08-17T03:07:11;48.50;;;16.48;;
35110;SDS011;21290;50.158;8.658;2023-08-17T03:09:38;40.10;;;15.38;;
35110;SDS011;21290;50.158;8.658;2023-08-17T03:12:04;46.70;;;16.60;;
35110;SDS011;21290;50.158;8.658;2023-08-17T03:14:31;42.10;;;16.50;;
35110;SDS011;21290;50.158;8.658;2023-08-17T03:16:58;42.40;;;15.80;;
35110;SDS011;21290;50.158;8.658;2023-08-17T03:19:24;55.53;;;17.73;;
35110;SDS011;21290;50.158;8.658;2023-08-17T03:21:51;49.50;;;17.08;;
35110;SDS011;21290;50.158;8.658;2023-08-17T03:24:18;55.10;;;16.88;;
35110;SDS011;21290;50.158;8.658;2023-08-17T03:26:44;41.85;;;15.73;;
35110;SDS011;21290;50.158;8.658;2023-08-17T03:29:11;50.10;;;16.67;;
35110;SDS011;21290;50.158;8.658;2023-08-17T03:31:38;45.50;;;16.40;;
35110;SDS011;21290;50.158;8.658;2023-08-17T03:34:04;38.45;;;15.00;;
35110;SDS011;21290;50.158;8.658;2023-08-17T03:36:31;41.97;;;15.25;;
35110;SDS011;21290;50.158;8.658;2023-08-17T03:38:57;43.65;;;14.40;;
35110;SDS011;21290;50.158;8.658;2023-08-17T03:41:24;37.35;;;14.80;;
35110;SDS011;21290;50.158;8.658;2023-08-17T03:43:51;39.10;;;15.43;;
35110;SDS011;21290;50.158;8.658;2023-08-17T03:46:18;37.85;;;15.10;;
35110;SDS011;21290;50.158;8.658;2023-08-17T03:48:44;44.95;;;16.83;;
35110;SDS011;21290;50.158;8.658;2023-08-17T03:51:11;54.25;;;18.08;;
35110;SDS011;21290;50.158;8.658;2023-08-17T03:53:37;46.03;;;16.77;;
35110;SDS011;21290;50.158;8.658;2023-08-17T03:56:04;48.45;;;16.98;;
35110;SDS011;21290;50.158;8.658;2023-08-17T03:58:31;44.78;;;16.45;;
35110;SDS011;21290;50.158;8.658;2023-08-17T04:01:01;45.17;;;16.08;;
35110;SDS011;21290;50.158;8.658;2023-08-17T04:03:29;46.42;;;15.68;;
35110;SDS011;21290;50.158;8.658;2023-08-17T04:05:56;42.92;;;16.52;;
35110;SDS011;21290;50.158;8.658;2023-08-17T04:08:22;40.90;;;15.20;;
35110;SDS011;21290;50.158;8.658;2023-08-17T04:10:49;40.42;;;15.60;;
35110;SDS011;21290;50.158;8.658;2023-08-17T04:13:16;42.95;;;15.68;;
35110;SDS011;21290;50.158;8.658;2023-08-17T04:15:42;50.10;;;16.65;;
35110;SDS011;21290;50.158;8.658;2023-08-17T04:18:09;44.97;;;16.75;;
35110;SDS011;21290;50.158;8.658;2023-08-17T04:20:36;47.53;;;15.90;;
35110;SDS011;21290;50.158;8.658;2023-08-17T04:23:02;52.95;;;16.55;;
35110;SDS011;21290;50.158;8.658;2023-08-17T04:25:29;48.30;;;17.20;;
35110;SDS011;21290;50.158;8.658;2023-08-17T04:27:56;55.83;;;17.52;;
35110;SDS011;21290;50.158;8.658;2023-08-17T04:30:22;50.75;;;17.23;;
35110;SDS011;21290;50.158;8.658;2023-08-17T04:32:49;51.15;;;17.50;;
35110;SDS011;21290;50.158;8.658;2023-08-17T04:35:19;50.60;;;17.30;;
35110;SDS011;21290;50.158;8.658;2023-08-17T04:37:47;62.95;;;18.63;;
35110;SDS011;21290;50.158;8.658;2023-08-17T04:40:13;61.10;;;20.08;;
35110;SDS011;21290;50.158;8.658;2023-08-17T04:42:41;69.85;;;20.30;;
35110;SDS011;21290;50.158;8.658;2023-08-17T04:45:07;55.20;;;18.30;;
35110;SDS011;21290;50.158;8.658;2023-08-17T04:47:34;63.30;;;18.98;;
35110;SDS011;21290;50.158;8.658;2023-08-17T04:50:01;70.43;;;20.83;;
35110;SDS011;21290;50.158;8.658;2023-08-17T04:52:27;62.50;;;19.67;;
35110;SDS011;21290;50.158;8.658;2023-08-17T04:54:54;57.40;;;19.15;;
35110;SDS011;21290;50.158;8.658;2023-08-17T04:57:21;46.47;;;16.85;;
35110;SDS011;21290;50.158;8.658;2023-08-17T04:59:47;48.60;;;18.42;;
35110;SDS011;21290;50.158;8.658;2023-08-17T05:02:14;56.10;;;18.10;;
35110;SDS011;21290;50.158;8.658;2023-08-17T05:04:41;51.33;;;17.60;;
35110;SDS011;21290;50.158;8.658;2023-08-17T05:07:08;53.33;;;17.90;;
35110;SDS011;21290;50.158;8.658;2023-08-17T05:09:34;55.58;;;17.63;;
35110;SDS011;21290;50.158;8.658;2023-08-17T05:12:01;56.22;;;18.45;;
35110;SDS011;21290;50.158;8.658;2023-08-17T05:14:28;50.78;;;18.15;;
35110;SDS011;21290;50.158;8.658;2023-08-17T05:16:54;44.55;;;15.82;;
35110;SDS011;21290;50.158;8.658;2023-08-17T05:19:21;47.75;;;17.27;;
35110;SDS011;21290;50.158;8.658;2023-08-17T05:21:48;37.97;;;15.25;;
35110;SDS011;21290;50.158;8.658;2023-08-17T05:24:16;34.93;;;14.43;;
35110;SDS011;21290;50.158;8.658;2023-08-17T05:26:43;34.67;;;14.93;;
35110;SDS011;21290;50.158;8.658;2023-08-17T05:29:10;35.25;;;14.82;;
35110;SDS011;21290;50.158;8.658;2023-08-17T05:31:36;32.35;;;15.00;;
35110;SDS011;21290;50.158;8.658;2023-08-17T05:34:07;37.22;;;15.20;;
35110;SDS011;21290;50.158;8.658;2023-08-17T05:36:33;32.72;;;14.68;;
35110;SDS011;21290;50.158;8.658;2023-08-17T05:39:00;30.10;;;13.27;;
35110;SDS011;21290;50.158;8.658;2023-08-17T05:41:27;43.97;;;14.65;;
35110;SDS011;21290;50.158;8.658;2023-08-17T05:43:55;39.38;;;13.68;;
35110;SDS011;21290;50.158;8.658;2023-08-17T05:46:21;25.00;;;12.73;;
35110;SDS011;21290;50.158;8.658;2023-08-17T05:48:48;23.17;;;13.00;;
35110;SDS011;21290;50.158;8.658;2023-08-17T05:51:15;34.95;;;12.60;;
35110;SDS011;21290;50.158;8.658;2023-08-17T05:53:42;34.08;;;13.80;;
35110;SDS011;21290;50.158;8.658;2023-08-17T05:56:09;54.33;;;13.93;;
35110;SDS011;21290;50.158;8.658;2023-08-17T05:58:35;31.63;;;12.02;;
35110;SDS011;21290;50.158;8.658;2023-08-17T06:01:06;54.28;;;11.77;;
35110;SDS011;21290;50.158;8.658;2023-08-17T06:03:34;43.47;;;11.40;;
35110;SDS011;21290;50.158;8.658;2023-08-17T06:06:02;19.08;;;11.65;;
35110;SDS011;21290;50.158;8.658;2023-08-17T06:08:32;102.53;;;37.35;;
35110;SDS011;21290;50.158;8.658;2023-08-17T06:10:59;21.45;;;10.95;;
35110;SDS011;21290;50.158;8.658;2023-08-17T06:13:25;23.25;;;11.02;;
35110;SDS011;21290;50.158;8.658;2023-08-17T06:15:52;14.45;;;9.93;;
35110;SDS011;21290;50.158;8.658;2023-08-17T06:18:21;17.10;;;10.55;;
35110;SDS011;21290;50.158;8.658;2023-08-17T06:20:48;13.38;;;9.48;;
35110;SDS011;21290;50.158;8.658;2023-08-17T06:23:18;22.17;;;10.15;;
35110;SDS011;21290;50.158;8.658;2023-08-17T06:25:44;15.50;;;11.18;;
35110;SDS011;21290;50.158;8.658;2023-08-17T06:28:11;31.88;;;10.50;;
35110;SDS011;21290;50.158;8.658;2023-08-17T06:30:38;17.73;;;10.52;;
35110;SDS011;21290;50.158;8.658;2023-08-17T06:33:04;14.38;;;9.63;;
35110;SDS011;21290;50.158;8.658;2023-08-17T06:35:31;16.73;;;10.15;;
35110;SDS011;21290;50.158;8.658;2023-08-17T06:37:57;13.07;;;10.05;;
35110;SDS011;21290;50.158;8.658;2023-08-17T06:40:24;14.55;;;10.13;;
35110;SDS011;21290;50.158;8.658;2023-08-17T06:42:51;16.33;;;9.70;;
35110;SDS011;21290;50.158;8.658;2023-08-17T06:45:20;13.25;;;9.15;;
35110;SDS011;21290;50.158;8.658;2023-08-17T06:47:48;15.60;;;8.63;;
35110;SDS011;21290;50.158;8.658;2023-08-17T06:50:15;14.60;;;8.50;;
35110;SDS011;21290;50.158;8.658;2023-08-17T06:52:41;15.07;;;8.25;;
35110;SDS011;21290;50.158;8.658;2023-08-17T06:55:08;11.32;;;8.10;;
35110;SDS011;21290;50.158;8.658;2023-08-17T06:57:36;14.00;;;7.95;;
35110;SDS011;21290;50.158;8.658;2023-08-17T07:00:03;11.25;;;7.15;;
35110;SDS011;21290;50.158;8.658;2023-08-17T07:02:33;9.98;;;6.97;;
35110;SDS011;21290;50.158;8.658;2023-08-17T07:05:17;14.70;;;6.65;;
35110;SDS011;21290;50.158;8.658;2023-08-17T07:07:44;77.57;;;31.58;;
35110;SDS011;21290;50.158;8.658;2023-08-17T07:10:11;16.55;;;7.78;;
35110;SDS011;21290;50.158;8.658;2023-08-17T07:12:38;8.27;;;5.70;;
35110;SDS011;21290;50.158;8.658;2023-08-17T07:15:05;8.13;;;4.55;;
35110;SDS011;21290;50.158;8.658;2023-08-17T07:17:33;8.20;;;5.70;;
35110;SDS011;21290;50.158;8.658;2023-08-17T07:20:00;5.57;;;4.72;;
35110;SDS011;21290;50.158;8.658;2023-08-17T07:22:30;8.13;;;4.47;;
35110;SDS011;21290;50.158;8.658;2023-08-17T07:24:57;8.52;;;4.15;;
35110;SDS011;21290;50.158;8.658;2023-08-17T07:27:24;8.00;;;4.68;;
35110;SDS011;21290;50.158;8.658;2023-08-17T07:29:51;6.95;;;4.00;;
35110;SDS011;21290;50.158;8.658;2023-08-17T07:32:18;6.63;;;4.00;;
35110;SDS011;21290;50.158;8.658;2023-08-17T07:34:45;4.95;;;3.90;;
35110;SDS011;21290;50.158;8.658;2023-08-17T07:37:11;5.93;;;3.90;;
35110;SDS011;21290;50.158;8.658;2023-08-17T07:39:41;6.38;;;3.38;;
35110;SDS011;21290;50.158;8.658;2023-08-17T07:42:07;5.20;;;3.45;;
35110;SDS011;21290;50.158;8.658;2023-08-17T07:44:34;5.82;;;3.45;;
35110;SDS011;21290;50.158;8.658;2023-08-17T07:47:01;4.35;;;3.30;;
35110;SDS011;21290;50.158;8.658;2023-08-17T07:49:28;4.32;;;3.08;;
35110;SDS011;21290;50.158;8.658;2023-08-17T07:51:58;3.70;;;3.00;;
35110;SDS011;21290;50.158;8.658;2023-08-17T07:54:25;9.60;;;4.93;;
35110;SDS011;21290;50.158;8.658;2023-08-17T07:56:52;6.35;;;4.00;;
35110;SDS011;21290;50.158;8.658;2023-08-17T07:59:19;3.30;;;2.58;;
35110;SDS011;21290;50.158;8.658;2023-08-17T08:01:45;5.53;;;2.75;;
35110;SDS011;21290;50.158;8.658;2023-08-17T08:04:12;2.67;;;2.13;;
35110;SDS011;21290;50.158;8.658;2023-08-17T08:06:39;3.47;;;2.30;;
35110;SDS011;21290;50.158;8.658;2023-08-17T08:09:06;4.53;;;2.70;;
35110;SDS011;21290;50.158;8.658;2023-08-17T08:11:33;3.17;;;2.30;;
35110;SDS011;21290;50.158;8.658;2023-08-17T08:14:00;3.33;;;2.30;;
35110;SDS011;21290;50.158;8.658;2023-08-17T08:16:27;6.95;;;2.85;;
35110;SDS011;21290;50.158;8.658;2023-08-17T08:18:56;6.10;;;2.20;;
35110;SDS011;21290;50.158;8.658;2023-08-17T08:21:24;4.10;;;2.20;;
35110;SDS011;21290;50.158;8.658;2023-08-17T08:23:50;4.00;;;1.83;;
35110;SDS011;21290;50.158;8.658;2023-08-17T08:26:17;2.13;;;1.60;;
35110;SDS011;21290;50.158;8.658;2023-08-17T08:28:44;4.93;;;2.05;;
35110;SDS011;21290;50.158;8.658;2023-08-17T08:31:11;2.13;;;1.50;;
35110;SDS011;21290;50.158;8.658;2023-08-17T08:33:38;2.45;;;1.20;;
35110;SDS011;21290;50.158;8.658;2023-08-17T08:36:05;1.50;;;1.00;;
35110;SDS011;21290;50.158;8.658;2023-08-17T08:38:34;2.85;;;0.93;;
35110;SDS011;21290;50.158;8.658;2023-08-17T08:41:01;1.52;;;0.90;;
35110;SDS011;21290;50.158;8.658;2023-08-17T08:43:29;4.77;;;1.10;;
35110;SDS011;21290;50.158;8.658;2023-08-17T08:45:56;3.58;;;1.13;;
35110;SDS011;21290;50.158;8.658;2023-08-17T08:48:24;10.15;;;1.77;;
35110;SDS011;21290;50.158;8.658;2023-08-17T08:50:54;0.70;;;0.70;;
35110;SDS011;21290;50.158;8.658;2023-08-17T08:53:24;7.50;;;3.22;;
35110;SDS011;21290;50.158;8.658;2023-08-17T08:56:01;0.63;;;0.63;;
35110;SDS011;21290;50.158;8.658;2023-08-17T08:58:29;2.38;;;0.90;;
35110;SDS011;21290;50.158;8.658;2023-08-17T09:00:58;0.75;;;0.75;;
35110;SDS011;21290;50.158;8.658;2023-08-17T09:03:27;1.95;;;0.80;;
35110;SDS011;21290;50.158;8.658;2023-08-17T09:05:54;0.70;;;0.60;;
35110;SDS011;21290;50.158;8.658;2023-08-17T09:08:25;1.67;;;0.55;;
35110;SDS011;21290;50.158;8.658;2023-08-17T09:10:54;1.77;;;0.80;;
35110;SDS011;21290;50.158;8.658;2023-08-17T09:13:21;1.38;;;0.70;;
35110;SDS011;21290;50.158;8.658;2023-08-17T09:15:48;2.72;;;0.90;;
35110;SDS011;21290;50.158;8.658;2023-08-17T09:18:15;3.45;;;0.80;;
35110;SDS011;21290;50.158;8.658;2023-08-17T09:20:43;1.45;;;0.77;;
35110;SDS011;21290;50.158;8.658;2023-08-17T09:23:15;0.93;;;0.85;;
35110;SDS011;21290;50.158;8.658;2023-08-17T09:25:43;1.55;;;0.93;;
35110;SDS011;21290;50.158;8.658;2023-08-17T09:28:14;4.50;;;0.93;;
35110;SDS011;21290;50.158;8.658;2023-08-17T09:33:21;2.13;;;0.60;;
35110;SDS011;21290;50.158;8.658;2023-08-17T09:35:49;2.40;;;1.08;;
35110;SDS011;21290;50.158;8.658;2023-08-17T09:38:17;3.55;;;1.25;;
35110;SDS011;21290;50.158;8.658;2023-08-17T09:40:45;1.80;;;1.08;;
35110;SDS011;21290;50.158;8.658;2023-08-17T09:43:13;3.60;;;1.25;;
35110;SDS011;21290;50.158;8.658;2023-08-17T09:45:40;1.27;;;0.90;;
35110;SDS011;21290;50.158;8.658;2023-08-17T09:48:10;2.10;;;0.80;;
35110;SDS011;21290;50.158;8.658;2023-08-17T09:50:37;3.30;;;0.80;;
35110;SDS011;21290;50.158;8.658;2023-08-17T09:53:04;1.10;;;0.82;;
35110;SDS011;21290;50.158;8.658;2023-08-17T09:55:31;2.67;;;0.60;;
35110;SDS011;21290;50.158;8.658;2023-08-17T09:58:00;1.20;;;0.70;;
35110;SDS011;21290;50.158;8.658;2023-08-17T10:00:28;1.15;;;0.85;;
35110;SDS011;21290;50.158;8.658;2023-08-17T10:05:24;1.75;;;0.70;;
35110;SDS011;21290;50.158;8.658;2023-08-17T10:07:56;3.00;;;0.88;;
35110;SDS011;21290;50.158;8.658;2023-08-17T10:10:25;1.90;;;0.75;;
35110;SDS011;21290;50.158;8.658;2023-08-17T10:15:33;3.08;;;1.00;;
35110;SDS011;21290;50.158;8.658;2023-08-17T10:21:01;2.83;;;0.88;;
35110;SDS011;21290;50.158;8.658;2023-08-17T10:23:30;3.13;;;0.80;;
35110;SDS011;21290;50.158;8.658;2023-08-17T10:28:26;2.90;;;0.90;;
35110;SDS011;21290;50.158;8.658;2023-08-17T10:30:53;3.83;;;0.63;;
35110;SDS011;21290;50.158;8.658;2023-08-17T10:33:20;2.58;;;0.57;;
35110;SDS011;21290;50.158;8.658;2023-08-17T10:35:47;5.93;;;0.70;;
35110;SDS011;21290;50.158;8.658;2023-08-17T10:38:15;1.40;;;0.80;;
35110;SDS011;21290;50.158;8.658;2023-08-17T10:40:42;1.60;;;0.70;;
35110;SDS011;21290;50.158;8.658;2023-08-17T10:43:09;1.27;;;0.45;;
35110;SDS011;21290;50.158;8.658;2023-08-17T10:45:37;2.78;;;0.55;;
35110;SDS011;21290;50.158;8.658;2023-08-17T10:50:35;3.10;;;0.70;;
35110;SDS011;21290;50.158;8.658;2023-08-17T10:53:11;3.65;;;0.80;;
35110;SDS011;21290;50.158;8.658;2023-08-17T10:55:39;3.33;;;0.70;;
35110;SDS011;21290;50.158;8.658;2023-08-17T10:58:07;1.60;;;0.73;;
35110;SDS011;21290;50.158;8.658;2023-08-17T11:00:40;2.85;;;0.90;;
35110;SDS011;21290;50.158;8.658;2023-08-17T11:03:18;2.03;;;0.70;;
35110;SDS011;21290;50.158;8.658;2023-08-17T11:05:47;1.65;;;0.65;;
35110;SDS011;21290;50.158;8.658;2023-08-17T11:08:20;1.23;;;0.60;;
35110;SDS011;21290;50.158;8.658;2023-08-17T11:13:32;0.60;;;0.60;;
35110;SDS011;21290;50.158;8.658;2023-08-17T11:16:00;3.70;;;0.70;;
35110;SDS011;21290;50.158;8.658;2023-08-17T11:18:30;1.38;;;0.82;;
35110;SDS011;21290;50.158;8.658;2023-08-17T11:20:57;4.03;;;0.70;;
35110;SDS011;21290;50.158;8.658;2023-08-17T11:23:24;1.35;;;0.80;;
35110;SDS011;21290;50.158;8.658;2023-08-17T11:25:54;4.15;;;0.85;;
35110;SDS011;21290;50.158;8.658;2023-08-17T11:28:21;1.65;;;0.77;;
35110;SDS011;21290;50.158;8.658;2023-08-17T11:30:58;3.75;;;0.75;;
35110;SDS011;21290;50.158;8.658;2023-08-17T11:33:38;1.35;;;0.70;;
35110;SDS011;21290;50.158;8.658;2023-08-17T11:36:07;3.25;;;0.75;;
35110;SDS011;21290;50.158;8.658;2023-08-17T11:38:38;2.40;;;0.77;;
35110;SDS011;21290;50.158;8.658;2023-08-17T11:41:07;2.03;;;0.90;;
35110;SDS011;21290;50.158;8.658;2023-08-17T11:43:35;4.68;;;0.95;;
35110;SDS011;21290;50.158;8.658;2023-08-17T11:46:02;1.00;;;0.70;;
35110;SDS011;21290;50.158;8.658;2023-08-17T11:48:29;2.55;;;0.70;;
35110;SDS011;21290;50.158;8.658;2023-08-17T11:51:02;1.95;;;0.77;;
35110;SDS011;21290;50.158;8.658;2023-08-17T11:53:33;0.73;;;0.60;;
35110;SDS011;21290;50.158;8.658;2023-08-17T11:56:01;3.20;;;0.85;;
35110;SDS011;21290;50.158;8.658;2023-08-17T11:58:51;3.72;;;0.90;;
35110;SDS011;21290;50.158;8.658;2023-08-17T12:01:18;1.85;;;0.73;;
35110;SDS011;21290;50.158;8.658;2023-08-17T12:03:44;2.20;;;0.70;;
35110;SDS011;21290;50.158;8.658;2023-08-17T12:06:15;2.45;;;0.88;;
35110;SDS011;21290;50.158;8.658;2023-08-17T12:08:43;2.10;;;1.00;;
35110;SDS011;21290;50.158;8.658;2023-08-17T12:11:14;2.08;;;1.00;;
35110;SDS011;21290;50.158;8.658;2023-08-17T12:13:43;4.00;;;0.90;;
35110;SDS011;21290;50.158;8.658;2023-08-17T12:16:14;2.15;;;0.80;;
35110;SDS011;21290;50.158;8.658;2023-08-17T12:18:43;1.48;;;0.93;;
35110;SDS011;21290;50.158;8.658;2023-08-17T12:21:20;1.52;;;1.00;;
35110;SDS011;21290;50.158;8.658;2023-08-17T12:23:48;1.10;;;1.00;;
35110;SDS011;21290;50.158;8.658;2023-08-17T12:26:18;1.63;;;0.95;;
35110;SDS011;21290;50.158;8.658;2023-08-17T12:28:45;1.42;;;1.10;;
35110;SDS011;21290;50.158;8.658;2023-08-17T12:31:12;3.15;;;1.10;;
35110;SDS011;21290;50.158;8.658;2023-08-17T12:33:39;4.80;;;1.58;;
35110;SDS011;21290;50.158;8.658;2023-08-17T12:36:05;2.25;;;1.20;;
35110;SDS011;21290;50.158;8.658;2023-08-17T12:38:33;3.58;;;1.58;;
35110;SDS011;21290;50.158;8.658;2023-08-17T12:41:00;3.90;;;1.30;;
35110;SDS011;21290;50.158;8.658;2023-08-17T12:43:32;2.65;;;1.52;;
35110;SDS011;21290;50.158;8.658;2023-08-17T12:45:59;3.60;;;1.13;;
35110;SDS011;21290;50.158;8.658;2023-08-17T12:50:54;3.30;;;1.02;;
35110;SDS011;21290;50.158;8.658;2023-08-17T12:53:20;2.95;;;1.33;;
35110;SDS011;21290;50.158;8.658;2023-08-17T12:55:47;2.13;;;1.15;;
35110;SDS011;21290;50.158;8.658;2023-08-17T12:58:20;1.35;;;1.20;;
35110;SDS011;21290;50.158;8.658;2023-08-17T13:00:47;4.22;;;1.20;;
35110;SDS011;21290;50.158;8.658;2023-08-17T13:03:19;4.60;;;1.30;;
35110;SDS011;21290;50.158;8.658;2023-08-17T13:05:46;5.30;;;2.40;;
35110;SDS011;21290;50.158;8.658;2023-08-17T13:08:12;5.50;;;1.58;;
35110;SDS011;21290;50.158;8.658;2023-08-17T13:10:39;1.80;;;1.13;;
35110;SDS011;21290;50.158;8.658;2023-08-17T13:13:06;1.33;;;1.17;;
35110;SDS011;21290;50.158;8.658;2023-08-17T13:15:33;2.72;;;1.40;;
35110;SDS011;21290;50.158;8.658;2023-08-17T13:17:59;1.83;;;1.25;;
35110;SDS011;21290;50.158;8.658;2023-08-17T13:20:27;3.20;;;1.50;;
35110;SDS011;21290;50.158;8.658;2023-08-17T13:22:54;2.50;;;1.50;;
35110;SDS011;21290;50.158;8.658;2023-08-17T13:25:20;3.17;;;1.48;;
35110;SDS011;21290;50.158;8.658;2023-08-17T13:27:47;5.57;;;1.63;;
35110;SDS011;21290;50.158;8.658;2023-08-17T13:30:13;3.50;;;1.40;;
35110;SDS011;21290;50.158;8.658;2023-08-17T13:32:40;2.38;;;1.63;;
35110;SDS011;21290;50.158;8.658;2023-08-17T13:35:10;2.92;;;1.65;;
35110;SDS011;21290;50.158;8.658;2023-08-17T13:37:37;2.83;;;1.73;;
35110;SDS011;21290;50.158;8.658;2023-08-17T13:40:04;1.70;;;1.55;;
35110;SDS011;21290;50.158;8.658;2023-08-17T13:42:31;4.95;;;1.70;;
35110;SDS011;21290;50.158;8.658;2023-08-17T13:44:58;5.38;;;1.90;;
35110;SDS011;21290;50.158;8.658;2023-08-17T13:47:24;2.38;;;1.50;;
35110;SDS011;21290;50.158;8.658;2023-08-17T13:49:51;2.80;;;2.15;;
35110;SDS011;21290;50.158;8.658;2023-08-17T13:52:18;2.88;;;1.60;;
35110;SDS011;21290;50.158;8.658;2023-08-17T13:54:44;3.03;;;1.80;;
35110;SDS011;21290;50.158;8.658;2023-08-17T13:57:11;7.13;;;1.60;;
35110;SDS011;21290;50.158;8.658;2023-08-17T13:59:38;2.50;;;1.70;;
35110;SDS011;21290;50.158;8.658;2023-08-17T14:02:05;2.13;;;1.55;;
35110;SDS011;21290;50.158;8.658;2023-08-17T14:04:32;3.20;;;1.98;;
35110;SDS011;21290;50.158;8.658;2023-08-17T14:06:59;3.80;;;1.50;;
35110;SDS011;21290;50.158;8.658;2023-08-17T14:09:25;4.13;;;1.58;;
35110;SDS011;21290;50.158;8.658;2023-08-17T14:11:52;1.45;;;1.35;;
35110;SDS011;21290;50.158;8.658;2023-08-17T14:14:18;3.17;;;1.67;;
35110;SDS011;21290;50.158;8.658;2023-08-17T14:16:45;3.85;;;1.40;;
35110;SDS011;21290;50.158;8.658;2023-08-17T14:19:12;4.25;;;1.30;;
35110;SDS011;21290;50.158;8.658;2023-08-17T14:21:38;2.17;;;1.38;;
35110;SDS011;21290;50.158;8.658;2023-08-17T14:24:05;4.90;;;1.92;;
35110;SDS011;21290;50.158;8.658;2023-08-17T14:29:00;3.47;;;1.63;;
35110;SDS011;21290;50.158;8.658;2023-08-17T14:31:27;2.22;;;1.27;;
35110;SDS011;21290;50.158;8.658;2023-08-17T14:33:54;1.80;;;1.60;;
35110;SDS011;21290;50.158;8.658;2023-08-17T14:36:21;1.30;;;1.20;;
35110;SDS011;21290;50.158;8.658;2023-08-17T14:38:47;3.58;;;1.80;;
35110;SDS011;21290;50.158;8.658;2023-08-17T14:41:14;3.95;;;1.60;;
35110;SDS011;21290;50.158;8.658;2023-08-17T14:43:41;3.05;;;1.70;;
35110;SDS011;21290;50.158;8.658;2023-08-17T14:46:07;2.03;;;1.60;;
35110;SDS011;21290;50.158;8.658;2023-08-17T14:48:40;3.90;;;1.73;;
35110;SDS011;21290;50.158;8.658;2023-08-17T14:51:07;5.50;;;1.90;;
35110;SDS011;21290;50.158;8.658;2023-08-17T14:53:33;5.70;;;1.52;;
35110;SDS011;21290;50.158;8.658;2023-08-17T14:56:04;2.25;;;1.80;;
35110;SDS011;21290;50.158;8.658;2023-08-17T14:58:31;2.97;;;1.83;;
35110;SDS011;21290;50.158;8.658;2023-08-17T15:00:58;2.90;;;2.03;;
35110;SDS011;21290;50.158;8.658;2023-08-17T15:03:24;5.05;;;1.70;;
35110;SDS011;21290;50.158;8.658;2023-08-17T15:05:51;2.30;;;1.75;;
35110;SDS011;21290;50.158;8.658;2023-08-17T15:08:18;2.72;;;1.77;;
35110;SDS011;21290;50.158;8.658;2023-08-17T15:10:46;4.00;;;2.13;;
35110;SDS011;21290;50.158;8.658;2023-08-17T15:13:14;3.08;;;2.70;;
35110;SDS011;21290;50.158;8.658;2023-08-17T15:15:41;3.53;;;1.88;;
35110;SDS011;21290;50.158;8.658;2023-08-17T15:18:09;7.28;;;2.28;;